sensor_id;sensor_type;location;lat;lon;timestamp;P1;durP1;ratioP1;P2;durP2;ratioP2
32295;SDS011;18781;51.550;5.418;2023-07-29T00:01:20;6.65;;;5.15;;
32295;SDS011;18781;51.550;5.418;2023-07-29T00:03:45;6.15;;;4.57;;
32295;SDS011;18781;51.550;5.418;2023-07-29T00:06:11;8.02;;;5.57;;
32295;SDS011;18781;51.550;5.418;2023-07-29T00:08:36;10.57;;;5.22;;
32295;SDS011;18781;51.550;5.418;2023-07-29T00:11:02;8.52;;;4.70;;
32295;SDS011;18781;51.550;5.418;2023-07-29T00:13:28;8.88;;;4.53;;
32295;SDS011;18781;51.550;5.418;2023-07-29T00:15:54;7.55;;;4.88;;
32295;SDS011;18781;51.550;5.418;2023-07-29T00:18:20;6.68;;;5.30;;
32295;SDS011;18781;51.550;5.418;2023-07-29T00:20:46;9.93;;;5.00;;
32295;SDS011;18781;51.550;5.418;2023-07-29T00:23:12;11.57;;;5.45;;
32295;SDS011;18781;51.550;5.418;2023-07-29T00:25:37;6.18;;;4.18;;
32295;SDS011;18781;51.550;5.418;2023-07-29T00:28:03;7.50;;;4.88;;
32295;SDS011;18781;51.550;5.418;2023-07-29T00:30:29;7.80;;;4.20;;
32295;SDS011;18781;51.550;5.418;2023-07-29T00:32:54;7.85;;;4.70;;
32295;SDS011;18781;51.550;5.418;2023-07-29T00:35:20;6.28;;;4.70;;
32295;SDS011;18781;51.550;5.418;2023-07-29T00:37:46;11.00;;;4.90;;
32295;SDS011;18781;51.550;5.418;2023-07-29T00:40:29;7.20;;;4.55;;
32295;SDS011;18781;51.550;5.418;2023-07-29T00:42:59;7.15;;;5.30;;
32295;SDS011;18781;51.550;5.418;2023-07-29T00:45:25;9.25;;;5.72;;
32295;SDS011;18781;51.550;5.418;2023-07-29T00:47:53;10.52;;;5.70;;
32295;SDS011;18781;51.550;5.418;2023-07-29T00:50:19;8.15;;;5.38;;
32295;SDS011;18781;51.550;5.418;2023-07-29T00:52:45;7.30;;;5.10;;
32295;SDS011;18781;51.550;5.418;2023-07-29T00:55:11;7.88;;;5.00;;
32295;SDS011;18781;51.550;5.418;2023-07-29T00:57:37;7.80;;;5.50;;
32295;SDS011;18781;51.550;5.418;2023-07-29T01:00:03;10.50;;;5.32;;
32295;SDS011;18781;51.550;5.418;2023-07-29T01:02:29;9.60;;;5.20;;
32295;SDS011;18781;51.550;5.418;2023-07-29T01:04:57;8.65;;;5.70;;
32295;SDS011;18781;51.550;5.418;2023-07-29T01:07:33;10.75;;;5.35;;
32295;SDS011;18781;51.550;5.418;2023-07-29T01:11:01;9.57;;;5.82;;
32295;SDS011;18781;51.550;5.418;2023-07-29T01:16:03;10.68;;;5.80;;
32295;SDS011;18781;51.550;5.418;2023-07-29T01:18:51;8.32;;;5.20;;
32295;SDS011;18781;51.550;5.418;2023-07-29T01:21:19;7.95;;;5.13;;
32295;SDS011;18781;51.550;5.418;2023-07-29T01:23:46;7.85;;;5.25;;
32295;SDS011;18781;51.550;5.418;2023-07-29T01:26:11;11.70;;;5.93;;
32295;SDS011;18781;51.550;5.418;2023-07-29T01:28:37;9.90;;;5.70;;
32295;SDS011;18781;51.550;5.418;2023-07-29T01:31:07;7.43;;;5.35;;
32295;SDS011;18781;51.550;5.418;2023-07-29T01:33:46;8.32;;;5.30;;
32295;SDS011;18781;51.550;5.418;2023-07-29T01:36:18;10.98;;;5.65;;
32295;SDS011;18781;51.550;5.418;2023-07-29T01:38:48;12.48;;;6.30;;
32295;SDS011;18781;51.550;5.418;2023-07-29T01:41:15;9.63;;;5.45;;
32295;SDS011;18781;51.550;5.418;2023-07-29T01:43:42;12.00;;;5.57;;
32295;SDS011;18781;51.550;5.418;2023-07-29T01:46:12;11.55;;;6.60;;
32295;SDS011;18781;51.550;5.418;2023-07-29T01:48:38;12.85;;;7.03;;
32295;SDS011;18781;51.550;5.418;2023-07-29T01:51:04;18.05;;;7.85;;
32295;SDS011;18781;51.550;5.418;2023-07-29T01:53:31;15.15;;;7.28;;
32295;SDS011;18781;51.550;5.418;2023-07-29T01:55:57;15.15;;;7.28;;
32295;SDS011;18781;51.550;5.418;2023-07-29T01:58:22;13.98;;;7.85;;
32295;SDS011;18781;51.550;5.418;2023-07-29T02:00:48;14.90;;;7.13;;
32295;SDS011;18781;51.550;5.418;2023-07-29T02:03:14;10.27;;;7.00;;
32295;SDS011;18781;51.550;5.418;2023-07-29T02:05:39;15.90;;;7.38;;
32295;SDS011;18781;51.550;5.418;2023-07-29T02:08:06;10.13;;;7.35;;
32295;SDS011;18781;51.550;5.418;2023-07-29T02:10:32;13.27;;;7.47;;
32295;SDS011;18781;51.550;5.418;2023-07-29T02:12:57;12.02;;;7.47;;
32295;SDS011;18781;51.550;5.418;2023-07-29T02:15:23;10.63;;;7.05;;
32295;SDS011;18781;51.550;5.418;2023-07-29T02:17:49;13.35;;;7.25;;
32295;SDS011;18781;51.550;5.418;2023-07-29T02:20:15;11.50;;;7.20;;
32295;SDS011;18781;51.550;5.418;2023-07-29T02:22:41;10.65;;;6.38;;
32295;SDS011;18781;51.550;5.418;2023-07-29T02:25:07;9.60;;;6.38;;
32295;SDS011;18781;51.550;5.418;2023-07-29T02:27:33;11.50;;;6.00;;
32295;SDS011;18781;51.550;5.418;2023-07-29T02:29:58;9.70;;;6.20;;
32295;SDS011;18781;51.550;5.418;2023-07-29T02:32:24;11.93;;;5.90;;
32295;SDS011;18781;51.550;5.418;2023-07-29T02:34:50;9.23;;;5.78;;
32295;SDS011;18781;51.550;5.418;2023-07-29T02:37:15;11.02;;;6.50;;
32295;SDS011;18781;51.550;5.418;2023-07-29T02:39:41;12.93;;;6.25;;
32295;SDS011;18781;51.550;5.418;2023-07-29T02:42:07;12.63;;;6.07;;
32295;SDS011;18781;51.550;5.418;2023-07-29T02:44:32;9.43;;;5.40;;
32295;SDS011;18781;51.550;5.418;2023-07-29T02:46:58;8.90;;;5.75;;
32295;SDS011;18781;51.550;5.418;2023-07-29T02:49:23;9.38;;;5.18;;
32295;SDS011;18781;51.550;5.418;2023-07-29T02:51:49;7.15;;;5.45;;
32295;SDS011;18781;51.550;5.418;2023-07-29T02:54:15;9.10;;;5.45;;
32295;SDS011;18781;51.550;5.418;2023-07-29T02:56:40;10.75;;;5.38;;
32295;SDS011;18781;51.550;5.418;2023-07-29T02:59:06;8.88;;;4.80;;
32295;SDS011;18781;51.550;5.418;2023-07-29T03:01:31;9.18;;;5.50;;
32295;SDS011;18781;51.550;5.418;2023-07-29T03:03:57;6.60;;;4.72;;
32295;SDS011;18781;51.550;5.418;2023-07-29T03:06:23;11.13;;;4.82;;
32295;SDS011;18781;51.550;5.418;2023-07-29T03:08:48;7.85;;;4.97;;
32295;SDS011;18781;51.550;5.418;2023-07-29T03:11:15;7.30;;;5.22;;
32295;SDS011;18781;51.550;5.418;2023-07-29T03:13:41;6.47;;;4.43;;
32295;SDS011;18781;51.550;5.418;2023-07-29T03:16:11;6.10;;;4.50;;
32295;SDS011;18781;51.550;5.418;2023-07-29T03:18:37;7.60;;;4.80;;
32295;SDS011;18781;51.550;5.418;2023-07-29T03:21:04;8.05;;;5.10;;
32295;SDS011;18781;51.550;5.418;2023-07-29T03:23:30;6.68;;;4.53;;
32295;SDS011;18781;51.550;5.418;2023-07-29T03:25:57;7.15;;;5.25;;
32295;SDS011;18781;51.550;5.418;2023-07-29T03:28:24;9.82;;;5.40;;
32295;SDS011;18781;51.550;5.418;2023-07-29T03:30:52;9.57;;;5.27;;
32295;SDS011;18781;51.550;5.418;2023-07-29T03:33:20;7.18;;;5.20;;
32295;SDS011;18781;51.550;5.418;2023-07-29T03:35:45;14.07;;;5.57;;
32295;SDS011;18781;51.550;5.418;2023-07-29T03:38:12;11.73;;;5.53;;
32295;SDS011;18781;51.550;5.418;2023-07-29T03:40:38;7.57;;;5.72;;
32295;SDS011;18781;51.550;5.418;2023-07-29T03:43:04;11.82;;;5.32;;
32295;SDS011;18781;51.550;5.418;2023-07-29T03:45:29;8.48;;;5.57;;
32295;SDS011;18781;51.550;5.418;2023-07-29T03:47:55;8.80;;;5.55;;
32295;SDS011;18781;51.550;5.418;2023-07-29T03:50:21;9.38;;;5.63;;
32295;SDS011;18781;51.550;5.418;2023-07-29T03:52:46;12.35;;;5.88;;
32295;SDS011;18781;51.550;5.418;2023-07-29T03:55:12;10.18;;;5.10;;
32295;SDS011;18781;51.550;5.418;2023-07-29T03:57:38;10.00;;;5.35;;
32295;SDS011;18781;51.550;5.418;2023-07-29T04:00:03;10.68;;;5.57;;
32295;SDS011;18781;51.550;5.418;2023-07-29T04:02:29;8.52;;;4.90;;
32295;SDS011;18781;51.550;5.418;2023-07-29T04:04:55;7.05;;;4.70;;
32295;SDS011;18781;51.550;5.418;2023-07-29T04:07:21;9.38;;;5.35;;
32295;SDS011;18781;51.550;5.418;2023-07-29T04:09:46;9.85;;;5.30;;
32295;SDS011;18781;51.550;5.418;2023-07-29T04:12:12;7.18;;;5.50;;
32295;SDS011;18781;51.550;5.418;2023-07-29T04:14:37;15.23;;;5.53;;
32295;SDS011;18781;51.550;5.418;2023-07-29T04:17:03;8.68;;;4.85;;
32295;SDS011;18781;51.550;5.418;2023-07-29T04:19:29;10.50;;;5.85;;
32295;SDS011;18781;51.550;5.418;2023-07-29T04:21:54;10.15;;;4.70;;
32295;SDS011;18781;51.550;5.418;2023-07-29T04:24:20;8.20;;;5.15;;
32295;SDS011;18781;51.550;5.418;2023-07-29T04:26:48;10.63;;;6.07;;
32295;SDS011;18781;51.550;5.418;2023-07-29T04:29:13;9.77;;;5.40;;
32295;SDS011;18781;51.550;5.418;2023-07-29T04:31:39;11.52;;;5.68;;
32295;SDS011;18781;51.550;5.418;2023-07-29T04:34:05;10.25;;;5.63;;
32295;SDS011;18781;51.550;5.418;2023-07-29T04:36:30;9.43;;;5.35;;
32295;SDS011;18781;51.550;5.418;2023-07-29T04:38:56;14.02;;;5.55;;
32295;SDS011;18781;51.550;5.418;2023-07-29T04:41:21;8.82;;;4.93;;
32295;SDS011;18781;51.550;5.418;2023-07-29T04:43:47;9.00;;;5.35;;
32295;SDS011;18781;51.550;5.418;2023-07-29T04:46:14;9.23;;;4.75;;
32295;SDS011;18781;51.550;5.418;2023-07-29T04:48:40;7.75;;;4.97;;
32295;SDS011;18781;51.550;5.418;2023-07-29T04:51:05;9.07;;;4.47;;
32295;SDS011;18781;51.550;5.418;2023-07-29T04:53:31;13.35;;;4.70;;
32295;SDS011;18781;51.550;5.418;2023-07-29T04:55:57;10.75;;;5.20;;
32295;SDS011;18781;51.550;5.418;2023-07-29T04:58:22;7.28;;;5.03;;
32295;SDS011;18781;51.550;5.418;2023-07-29T05:00:48;10.95;;;4.72;;
32295;SDS011;18781;51.550;5.418;2023-07-29T05:03:13;7.68;;;4.90;;
32295;SDS011;18781;51.550;5.418;2023-07-29T05:05:39;6.50;;;4.30;;
32295;SDS011;18781;51.550;5.418;2023-07-29T05:08:04;7.20;;;4.30;;
32295;SDS011;18781;51.550;5.418;2023-07-29T05:10:30;8.80;;;4.13;;
32295;SDS011;18781;51.550;5.418;2023-07-29T05:12:55;6.90;;;3.88;;
32295;SDS011;18781;51.550;5.418;2023-07-29T05:15:21;7.70;;;4.35;;
32295;SDS011;18781;51.550;5.418;2023-07-29T05:17:46;7.72;;;4.18;;
32295;SDS011;18781;51.550;5.418;2023-07-29T05:20:12;6.43;;;3.92;;
32295;SDS011;18781;51.550;5.418;2023-07-29T05:22:37;10.07;;;4.30;;
32295;SDS011;18781;51.550;5.418;2023-07-29T05:25:03;11.55;;;4.18;;
32295;SDS011;18781;51.550;5.418;2023-07-29T05:27:29;5.03;;;3.70;;
32295;SDS011;18781;51.550;5.418;2023-07-29T05:29:54;8.85;;;4.00;;
32295;SDS011;18781;51.550;5.418;2023-07-29T05:32:20;6.60;;;3.45;;
32295;SDS011;18781;51.550;5.418;2023-07-29T05:34:46;8.23;;;4.22;;
32295;SDS011;18781;51.550;5.418;2023-07-29T05:37:11;8.13;;;4.05;;
32295;SDS011;18781;51.550;5.418;2023-07-29T05:39:37;8.85;;;4.15;;
32295;SDS011;18781;51.550;5.418;2023-07-29T05:42:03;11.07;;;3.47;;
32295;SDS011;18781;51.550;5.418;2023-07-29T05:44:28;6.18;;;3.47;;
32295;SDS011;18781;51.550;5.418;2023-07-29T05:46:57;10.05;;;4.28;;
32295;SDS011;18781;51.550;5.418;2023-07-29T05:49:23;7.13;;;3.80;;
32295;SDS011;18781;51.550;5.418;2023-07-29T05:51:48;6.20;;;3.90;;
32295;SDS011;18781;51.550;5.418;2023-07-29T05:54:15;6.60;;;4.13;;
32295;SDS011;18781;51.550;5.418;2023-07-29T05:56:42;7.65;;;3.78;;
32295;SDS011;18781;51.550;5.418;2023-07-29T05:59:07;4.63;;;3.67;;
32295;SDS011;18781;51.550;5.418;2023-07-29T06:01:33;8.32;;;4.18;;
32295;SDS011;18781;51.550;5.418;2023-07-29T06:03:59;9.15;;;3.90;;
32295;SDS011;18781;51.550;5.418;2023-07-29T06:06:24;6.28;;;4.18;;
32295;SDS011;18781;51.550;5.418;2023-07-29T06:08:50;7.28;;;3.45;;
32295;SDS011;18781;51.550;5.418;2023-07-29T06:11:15;5.78;;;3.72;;
32295;SDS011;18781;51.550;5.418;2023-07-29T06:13:41;6.60;;;3.95;;
32295;SDS011;18781;51.550;5.418;2023-07-29T06:16:07;6.45;;;4.05;;
32295;SDS011;18781;51.550;5.418;2023-07-29T06:18:32;8.35;;;4.03;;
32295;SDS011;18781;51.550;5.418;2023-07-29T06:20:58;6.97;;;4.38;;
32295;SDS011;18781;51.550;5.418;2023-07-29T06:23:23;7.38;;;4.00;;
32295;SDS011;18781;51.550;5.418;2023-07-29T06:25:49;5.80;;;3.60;;
32295;SDS011;18781;51.550;5.418;2023-07-29T06:28:14;6.93;;;4.40;;
32295;SDS011;18781;51.550;5.418;2023-07-29T06:30:40;7.70;;;4.40;;
32295;SDS011;18781;51.550;5.418;2023-07-29T06:33:05;9.60;;;4.70;;
32295;SDS011;18781;51.550;5.418;2023-07-29T06:35:31;8.25;;;4.22;;
32295;SDS011;18781;51.550;5.418;2023-07-29T06:37:57;10.10;;;4.30;;
32295;SDS011;18781;51.550;5.418;2023-07-29T06:40:22;7.93;;;4.30;;
32295;SDS011;18781;51.550;5.418;2023-07-29T06:42:48;10.55;;;3.83;;
32295;SDS011;18781;51.550;5.418;2023-07-29T06:45:13;6.07;;;4.32;;
32295;SDS011;18781;51.550;5.418;2023-07-29T06:47:40;6.47;;;3.97;;
32295;SDS011;18781;51.550;5.418;2023-07-29T06:50:06;8.93;;;3.63;;
32295;SDS011;18781;51.550;5.418;2023-07-29T06:52:32;6.43;;;3.58;;
32295;SDS011;18781;51.550;5.418;2023-07-29T06:54:57;5.32;;;3.97;;
32295;SDS011;18781;51.550;5.418;2023-07-29T06:57:23;7.85;;;3.90;;
32295;SDS011;18781;51.550;5.418;2023-07-29T06:59:48;7.78;;;3.75;;
32295;SDS011;18781;51.550;5.418;2023-07-29T07:02:14;6.63;;;3.80;;
32295;SDS011;18781;51.550;5.418;2023-07-29T07:04:39;5.57;;;3.50;;
32295;SDS011;18781;51.550;5.418;2023-07-29T07:07:05;6.68;;;3.63;;
32295;SDS011;18781;51.550;5.418;2023-07-29T07:09:31;6.75;;;3.97;;
32295;SDS011;18781;51.550;5.418;2023-07-29T07:11:56;7.28;;;3.55;;
32295;SDS011;18781;51.550;5.418;2023-07-29T07:14:22;9.80;;;4.30;;
32295;SDS011;18781;51.550;5.418;2023-07-29T07:16:47;7.65;;;3.58;;
32295;SDS011;18781;51.550;5.418;2023-07-29T07:19:13;5.10;;;3.70;;
32295;SDS011;18781;51.550;5.418;2023-07-29T07:21:38;5.10;;;3.53;;
32295;SDS011;18781;51.550;5.418;2023-07-29T07:24:04;7.13;;;4.05;;
32295;SDS011;18781;51.550;5.418;2023-07-29T07:26:29;5.47;;;3.90;;
32295;SDS011;18781;51.550;5.418;2023-07-29T07:28:55;10.77;;;3.92;;
32295;SDS011;18781;51.550;5.418;2023-07-29T07:31:21;7.53;;;3.88;;
32295;SDS011;18781;51.550;5.418;2023-07-29T07:33:47;7.03;;;3.63;;
32295;SDS011;18781;51.550;5.418;2023-07-29T07:36:13;9.57;;;3.67;;
32295;SDS011;18781;51.550;5.418;2023-07-29T07:38:38;7.60;;;3.85;;
32295;SDS011;18781;51.550;5.418;2023-07-29T07:41:04;7.88;;;3.30;;
32295;SDS011;18781;51.550;5.418;2023-07-29T07:43:29;8.00;;;3.45;;
32295;SDS011;18781;51.550;5.418;2023-07-29T07:45:58;6.85;;;3.50;;
32295;SDS011;18781;51.550;5.418;2023-07-29T07:48:25;8.48;;;3.53;;
32295;SDS011;18781;51.550;5.418;2023-07-29T07:50:51;6.78;;;3.30;;
32295;SDS011;18781;51.550;5.418;2023-07-29T07:53:17;7.78;;;3.65;;
32295;SDS011;18781;51.550;5.418;2023-07-29T07:55:42;6.78;;;3.08;;
32295;SDS011;18781;51.550;5.418;2023-07-29T07:58:08;6.05;;;3.47;;
32295;SDS011;18781;51.550;5.418;2023-07-29T08:00:34;5.20;;;3.67;;
32295;SDS011;18781;51.550;5.418;2023-07-29T08:02:59;8.52;;;3.38;;
32295;SDS011;18781;51.550;5.418;2023-07-29T08:05:25;7.95;;;3.38;;
32295;SDS011;18781;51.550;5.418;2023-07-29T08:07:50;6.78;;;2.72;;
32295;SDS011;18781;51.550;5.418;2023-07-29T08:10:16;5.93;;;2.78;;
32295;SDS011;18781;51.550;5.418;2023-07-29T08:12:41;5.75;;;2.97;;
32295;SDS011;18781;51.550;5.418;2023-07-29T08:15:07;3.97;;;2.70;;
32295;SDS011;18781;51.550;5.418;2023-07-29T08:17:33;4.53;;;2.47;;
32295;SDS011;18781;51.550;5.418;2023-07-29T08:19:58;8.98;;;2.70;;
32295;SDS011;18781;51.550;5.418;2023-07-29T08:22:24;6.70;;;2.47;;
32295;SDS011;18781;51.550;5.418;2023-07-29T08:24:50;4.72;;;2.13;;
32295;SDS011;18781;51.550;5.418;2023-07-29T08:27:15;3.78;;;2.25;;
32295;SDS011;18781;51.550;5.418;2023-07-29T08:29:41;7.72;;;2.55;;
32295;SDS011;18781;51.550;5.418;2023-07-29T08:32:07;6.07;;;2.22;;
32295;SDS011;18781;51.550;5.418;2023-07-29T08:34:32;5.47;;;2.25;;
32295;SDS011;18781;51.550;5.418;2023-07-29T08:36:58;3.85;;;2.13;;
32295;SDS011;18781;51.550;5.418;2023-07-29T08:39:25;4.28;;;2.63;;
32295;SDS011;18781;51.550;5.418;2023-07-29T08:44:40;3.83;;;2.25;;
32295;SDS011;18781;51.550;5.418;2023-07-29T08:47:06;3.78;;;2.53;;
32295;SDS011;18781;51.550;5.418;2023-07-29T08:49:32;4.22;;;2.45;;
32295;SDS011;18781;51.550;5.418;2023-07-29T08:51:58;4.78;;;2.20;;
32295;SDS011;18781;51.550;5.418;2023-07-29T08:54:26;9.88;;;2.10;;
32295;SDS011;18781;51.550;5.418;2023-07-29T08:56:52;4.57;;;2.15;;
32295;SDS011;18781;51.550;5.418;2023-07-29T08:59:18;4.25;;;2.00;;
32295;SDS011;18781;51.550;5.418;2023-07-29T09:01:44;2.95;;;1.95;;
32295;SDS011;18781;51.550;5.418;2023-07-29T09:04:11;3.30;;;2.10;;
32295;SDS011;18781;51.550;5.418;2023-07-29T09:06:37;4.47;;;1.85;;
32295;SDS011;18781;51.550;5.418;2023-07-29T09:09:04;3.80;;;2.08;;
32295;SDS011;18781;51.550;5.418;2023-07-29T09:11:32;3.83;;;1.75;;
32295;SDS011;18781;51.550;5.418;2023-07-29T09:13:58;3.28;;;1.70;;
32295;SDS011;18781;51.550;5.418;2023-07-29T09:16:24;2.63;;;1.73;;
32295;SDS011;18781;51.550;5.418;2023-07-29T09:18:51;4.30;;;1.77;;
32295;SDS011;18781;51.550;5.418;2023-07-29T09:21:17;4.20;;;1.90;;
32295;SDS011;18781;51.550;5.418;2023-07-29T09:23:47;2.75;;;1.80;;
32295;SDS011;18781;51.550;5.418;2023-07-29T09:26:14;3.17;;;1.75;;
32295;SDS011;18781;51.550;5.418;2023-07-29T09:28:51;6.53;;;1.98;;
32295;SDS011;18781;51.550;5.418;2023-07-29T09:31:19;6.68;;;1.98;;
32295;SDS011;18781;51.550;5.418;2023-07-29T09:33:46;4.43;;;1.50;;
32295;SDS011;18781;51.550;5.418;2023-07-29T09:36:11;3.25;;;2.15;;
32295;SDS011;18781;51.550;5.418;2023-07-29T09:38:37;2.88;;;1.88;;
32295;SDS011;18781;51.550;5.418;2023-07-29T09:41:03;2.50;;;1.80;;
32295;SDS011;18781;51.550;5.418;2023-07-29T09:43:29;2.10;;;1.80;;
32295;SDS011;18781;51.550;5.418;2023-07-29T09:45:59;3.42;;;1.70;;
32295;SDS011;18781;51.550;5.418;2023-07-29T09:48:26;3.08;;;1.70;;
32295;SDS011;18781;51.550;5.418;2023-07-29T09:50:53;3.38;;;1.73;;
32295;SDS011;18781;51.550;5.418;2023-07-29T09:53:19;4.10;;;1.40;;
32295;SDS011;18781;51.550;5.418;2023-07-29T09:55:46;2.75;;;1.73;;
32295;SDS011;18781;51.550;5.418;2023-07-29T09:58:13;2.60;;;1.70;;
32295;SDS011;18781;51.550;5.418;2023-07-29T10:00:39;4.75;;;1.70;;
32295;SDS011;18781;51.550;5.418;2023-07-29T10:03:05;4.72;;;1.77;;
32295;SDS011;18781;51.550;5.418;2023-07-29T10:05:31;7.55;;;1.80;;
32295;SDS011;18781;51.550;5.418;2023-07-29T10:07:59;3.30;;;1.65;;
32295;SDS011;18781;51.550;5.418;2023-07-29T10:10:26;2.35;;;1.95;;
32295;SDS011;18781;51.550;5.418;2023-07-29T10:12:53;4.35;;;2.00;;
32295;SDS011;18781;51.550;5.418;2023-07-29T10:15:19;2.53;;;1.67;;
32295;SDS011;18781;51.550;5.418;2023-07-29T10:17:46;5.05;;;2.00;;
32295;SDS011;18781;51.550;5.418;2023-07-29T10:20:12;5.97;;;2.10;;
32295;SDS011;18781;51.550;5.418;2023-07-29T10:22:42;4.22;;;1.92;;
32295;SDS011;18781;51.550;5.418;2023-07-29T10:25:13;3.38;;;2.20;;
32295;SDS011;18781;51.550;5.418;2023-07-29T10:27:42;3.50;;;2.22;;
32295;SDS011;18781;51.550;5.418;2023-07-29T10:30:11;5.13;;;2.10;;
32295;SDS011;18781;51.550;5.418;2023-07-29T10:32:38;5.22;;;2.20;;
32295;SDS011;18781;51.550;5.418;2023-07-29T10:35:06;5.63;;;2.20;;
32295;SDS011;18781;51.550;5.418;2023-07-29T10:37:32;4.70;;;1.90;;
32295;SDS011;18781;51.550;5.418;2023-07-29T10:39:58;2.00;;;1.80;;
32295;SDS011;18781;51.550;5.418;2023-07-29T10:42:24;2.80;;;1.90;;
32295;SDS011;18781;51.550;5.418;2023-07-29T10:44:50;2.35;;;1.70;;
32295;SDS011;18781;51.550;5.418;2023-07-29T10:47:17;2.95;;;2.03;;
32295;SDS011;18781;51.550;5.418;2023-07-29T10:49:52;3.33;;;2.20;;
32295;SDS011;18781;51.550;5.418;2023-07-29T10:55:00;3.50;;;2.20;;
32295;SDS011;18781;51.550;5.418;2023-07-29T10:57:34;7.07;;;1.75;;
32295;SDS011;18781;51.550;5.418;2023-07-29T11:00:02;2.70;;;1.83;;
32295;SDS011;18781;51.550;5.418;2023-07-29T11:02:31;2.40;;;2.08;;
32295;SDS011;18781;51.550;5.418;2023-07-29T11:04:58;2.92;;;2.03;;
32295;SDS011;18781;51.550;5.418;2023-07-29T11:07:27;3.80;;;1.80;;
32295;SDS011;18781;51.550;5.418;2023-07-29T11:10:00;2.38;;;1.75;;
32295;SDS011;18781;51.550;5.418;2023-07-29T11:12:37;3.47;;;2.00;;
32295;SDS011;18781;51.550;5.418;2023-07-29T11:17:58;3.30;;;1.88;;
32295;SDS011;18781;51.550;5.418;2023-07-29T11:20:26;3.10;;;1.77;;
32295;SDS011;18781;51.550;5.418;2023-07-29T11:22:54;2.63;;;1.77;;
32295;SDS011;18781;51.550;5.418;2023-07-29T11:25:21;3.70;;;1.90;;
32295;SDS011;18781;51.550;5.418;2023-07-29T11:27:48;3.33;;;1.90;;
32295;SDS011;18781;51.550;5.418;2023-07-29T11:30:14;3.20;;;1.73;;
32295;SDS011;18781;51.550;5.418;2023-07-29T11:32:41;2.90;;;1.80;;
32295;SDS011;18781;51.550;5.418;2023-07-29T11:35:08;4.00;;;2.08;;
32295;SDS011;18781;51.550;5.418;2023-07-29T11:37:39;3.63;;;1.90;;
32295;SDS011;18781;51.550;5.418;2023-07-29T11:40:07;5.25;;;1.90;;
32295;SDS011;18781;51.550;5.418;2023-07-29T11:42:35;4.30;;;2.65;;
32295;SDS011;18781;51.550;5.418;2023-07-29T11:45:02;3.80;;;2.00;;
32295;SDS011;18781;51.550;5.418;2023-07-29T11:47:28;3.40;;;2.15;;
32295;SDS011;18781;51.550;5.418;2023-07-29T11:49:57;4.53;;;2.22;;
32295;SDS011;18781;51.550;5.418;2023-07-29T11:52:25;5.20;;;2.10;;
32295;SDS011;18781;51.550;5.418;2023-07-29T11:54:52;4.75;;;2.35;;
32295;SDS011;18781;51.550;5.418;2023-07-29T11:57:17;3.88;;;2.30;;
32295;SDS011;18781;51.550;5.418;2023-07-29T11:59:43;3.42;;;2.13;;
32295;SDS011;18781;51.550;5.418;2023-07-29T12:02:11;4.20;;;2.35;;
32295;SDS011;18781;51.550;5.418;2023-07-29T12:04:41;4.55;;;2.28;;
32295;SDS011;18781;51.550;5.418;2023-07-29T12:07:08;2.53;;;2.28;;
32295;SDS011;18781;51.550;5.418;2023-07-29T12:09:34;3.83;;;1.90;;
32295;SDS011;18781;51.550;5.418;2023-07-29T12:12:04;3.45;;;1.98;;
32295;SDS011;18781;51.550;5.418;2023-07-29T12:14:31;4.05;;;2.53;;
32295;SDS011;18781;51.550;5.418;2023-07-29T12:16:59;6.70;;;2.45;;
32295;SDS011;18781;51.550;5.418;2023-07-29T12:19:30;4.97;;;2.40;;
32295;SDS011;18781;51.550;5.418;2023-07-29T12:21:58;4.00;;;2.47;;
32295;SDS011;18781;51.550;5.418;2023-07-29T12:24:24;9.15;;;2.50;;
32295;SDS011;18781;51.550;5.418;2023-07-29T12:26:49;4.90;;;2.50;;
32295;SDS011;18781;51.550;5.418;2023-07-29T12:29:17;5.80;;;2.95;;
32295;SDS011;18781;51.550;5.418;2023-07-29T12:31:46;6.40;;;3.08;;
32295;SDS011;18781;51.550;5.418;2023-07-29T12:34:18;5.47;;;2.83;;
32295;SDS011;18781;51.550;5.418;2023-07-29T12:36:46;7.22;;;2.80;;
32295;SDS011;18781;51.550;5.418;2023-07-29T12:39:20;6.97;;;3.20;;
32295;SDS011;18781;51.550;5.418;2023-07-29T12:41:49;5.85;;;3.33;;
32295;SDS011;18781;51.550;5.418;2023-07-29T12:44:16;12.43;;;3.60;;
32295;SDS011;18781;51.550;5.418;2023-07-29T12:46:42;5.50;;;3.40;;
32295;SDS011;18781;51.550;5.418;2023-07-29T12:49:08;4.68;;;3.75;;
32295;SDS011;18781;51.550;5.418;2023-07-29T12:51:34;6.75;;;3.90;;
32295;SDS011;18781;51.550;5.418;2023-07-29T12:54:00;6.90;;;3.53;;
32295;SDS011;18781;51.550;5.418;2023-07-29T12:56:26;6.07;;;4.35;;
32295;SDS011;18781;51.550;5.418;2023-07-29T12:58:52;5.88;;;3.95;;
32295;SDS011;18781;51.550;5.418;2023-07-29T13:01:17;8.68;;;4.20;;
32295;SDS011;18781;51.550;5.418;2023-07-29T13:03:43;6.82;;;4.50;;
32295;SDS011;18781;51.550;5.418;2023-07-29T13:06:09;5.78;;;3.90;;
32295;SDS011;18781;51.550;5.418;2023-07-29T13:08:35;8.35;;;4.18;;
32295;SDS011;18781;51.550;5.418;2023-07-29T13:11:00;7.05;;;4.22;;
32295;SDS011;18781;51.550;5.418;2023-07-29T13:13:26;6.10;;;3.70;;
32295;SDS011;18781;51.550;5.418;2023-07-29T13:15:52;5.50;;;3.95;;
32295;SDS011;18781;51.550;5.418;2023-07-29T13:18:18;4.00;;;3.30;;
32295;SDS011;18781;51.550;5.418;2023-07-29T13:20:43;6.70;;;4.22;;
32295;SDS011;18781;51.550;5.418;2023-07-29T13:23:09;6.00;;;3.65;;
32295;SDS011;18781;51.550;5.418;2023-07-29T13:25:34;6.18;;;3.53;;
32295;SDS011;18781;51.550;5.418;2023-07-29T13:28:00;6.97;;;3.13;;
32295;SDS011;18781;51.550;5.418;2023-07-29T13:30:25;8.10;;;3.70;;
32295;SDS011;18781;51.550;5.418;2023-07-29T13:32:51;6.45;;;2.75;;
32295;SDS011;18781;51.550;5.418;2023-07-29T13:35:16;3.78;;;2.72;;
32295;SDS011;18781;51.550;5.418;2023-07-29T13:37:42;3.65;;;2.50;;
32295;SDS011;18781;51.550;5.418;2023-07-29T13:40:08;5.78;;;2.50;;
32295;SDS011;18781;51.550;5.418;2023-07-29T13:42:33;4.18;;;2.75;;
32295;SDS011;18781;51.550;5.418;2023-07-29T13:44:59;6.70;;;2.83;;
32295;SDS011;18781;51.550;5.418;2023-07-29T13:47:24;3.13;;;2.33;;
32295;SDS011;18781;51.550;5.418;2023-07-29T13:49:50;4.82;;;2.13;;
32295;SDS011;18781;51.550;5.418;2023-07-29T13:52:15;4.47;;;2.15;;
32295;SDS011;18781;51.550;5.418;2023-07-29T13:54:41;2.72;;;1.88;;
32295;SDS011;18781;51.550;5.418;2023-07-29T13:57:06;1.77;;;1.60;;
32295;SDS011;18781;51.550;5.418;2023-07-29T13:59:32;2.47;;;1.75;;
32295;SDS011;18781;51.550;5.418;2023-07-29T14:01:58;2.22;;;1.50;;
32295;SDS011;18781;51.550;5.418;2023-07-29T14:04:23;1.77;;;1.52;;
32295;SDS011;18781;51.550;5.418;2023-07-29T14:06:49;3.15;;;1.65;;
32295;SDS011;18781;51.550;5.418;2023-07-29T14:09:14;3.78;;;1.88;;
32295;SDS011;18781;51.550;5.418;2023-07-29T14:11:40;2.63;;;1.70;;
32295;SDS011;18781;51.550;5.418;2023-07-29T14:14:06;4.22;;;1.70;;
32295;SDS011;18781;51.550;5.418;2023-07-29T14:16:32;2.72;;;1.50;;
32295;SDS011;18781;51.550;5.418;2023-07-29T14:18:58;1.85;;;1.30;;
32295;SDS011;18781;51.550;5.418;2023-07-29T14:21:23;1.60;;;1.50;;
32295;SDS011;18781;51.550;5.418;2023-07-29T14:23:49;2.03;;;1.30;;
32295;SDS011;18781;51.550;5.418;2023-07-29T14:26:15;2.55;;;1.58;;
32295;SDS011;18781;51.550;5.418;2023-07-29T14:28:41;2.28;;;1.35;;
32295;SDS011;18781;51.550;5.418;2023-07-29T14:31:06;2.05;;;1.35;;
32295;SDS011;18781;51.550;5.418;2023-07-29T14:33:32;2.40;;;1.60;;
32295;SDS011;18781;51.550;5.418;2023-07-29T14:35:57;5.43;;;1.40;;
32295;SDS011;18781;51.550;5.418;2023-07-29T14:38:23;2.03;;;1.48;;
32295;SDS011;18781;51.550;5.418;2023-07-29T14:40:48;2.10;;;1.45;;
32295;SDS011;18781;51.550;5.418;2023-07-29T14:43:16;5.93;;;1.70;;
32295;SDS011;18781;51.550;5.418;2023-07-29T14:45:42;2.25;;;1.50;;
32295;SDS011;18781;51.550;5.418;2023-07-29T14:48:07;4.93;;;1.58;;
32295;SDS011;18781;51.550;5.418;2023-07-29T14:50:33;2.35;;;1.67;;
32295;SDS011;18781;51.550;5.418;2023-07-29T14:52:58;3.42;;;1.80;;